createdAt,value
2023-02-16T00:02:05.544Z,-5.95
2023-02-16T00:07:08.443Z,-5.78
2023-02-16T00:12:49.431Z,-5.92
2023-02-16T00:18:22.116Z,-5.73
2023-02-16T00:23:25.095Z,-5.77
2023-02-16T00:28:28.441Z,-5.74
2023-02-16T00:33:32.434Z,-5.83
2023-02-16T00:38:34.971Z,-5.99
2023-02-16T00:43:37.589Z,-6.17
2023-02-16T00:48:41.315Z,-5.96
2023-02-16T00:53:43.706Z,-6.28
2023-02-16T00:58:46.847Z,-6.07
2023-02-16T01:03:49.335Z,-6.15
2023-02-16T01:09:12.830Z,-6.45
2023-02-16T01:14:15.117Z,-6.35
2023-02-16T01:19:17.721Z,-6.44
2023-02-16T01:24:22.407Z,-6.53
2023-02-16T01:29:24.805Z,-6.59
2023-02-16T01:34:28.358Z,-6.43
2023-02-16T01:39:34.919Z,-6.56
2023-02-16T01:44:47.052Z,-6.46
2023-02-16T01:49:50.492Z,-6.53
2023-02-16T01:55:26.154Z,-6.44
2023-02-16T02:00:57.685Z,-6.45
2023-02-16T02:06:00.123Z,-6.71
2023-02-16T02:11:17.394Z,-6.67
2023-02-16T02:16:22.689Z,-6.98
2023-02-16T02:22:01.416Z,-6.69
2023-02-16T02:27:13.458Z,-6.70
2023-02-16T02:32:25.537Z,-6.63
2023-02-16T02:37:35.402Z,-6.77
2023-02-16T02:42:57.384Z,-6.86
2023-02-16T02:48:00.166Z,-6.77
2023-02-16T02:53:10.225Z,-6.86
2023-02-16T02:58:33.410Z,-6.81
2023-02-16T03:03:51.290Z,-6.92
2023-02-16T03:09:07.331Z,-7.11
2023-02-16T03:14:36.767Z,-7.10
2023-02-16T03:20:01.948Z,-6.96
2023-02-16T03:25:27.073Z,-6.87
2023-02-16T03:30:30.956Z,-6.93
2023-02-16T03:35:37.175Z,-6.95
2023-02-16T03:40:42.058Z,-7.04
2023-02-16T03:45:45.926Z,-6.76
2023-02-16T03:50:49.392Z,-6.98
2023-02-16T03:55:51.736Z,-6.82
2023-02-16T04:00:54.649Z,-6.82
2023-02-16T04:05:59.126Z,-6.96
2023-02-16T04:11:22.044Z,-7.05
2023-02-16T04:16:24.540Z,-6.90
2023-02-16T04:21:27.352Z,-6.90
2023-02-16T04:26:29.680Z,-6.95
2023-02-16T04:31:32.670Z,-6.88
2023-02-16T04:36:35.757Z,-7.14
2023-02-16T04:41:38.734Z,-7.16
2023-02-16T04:46:42.330Z,-7.20
2023-02-16T04:51:45.347Z,-6.90
2023-02-16T04:56:50.210Z,-6.66
2023-02-16T05:01:54.936Z,-6.70
2023-02-16T05:06:58.276Z,-6.49
2023-02-16T05:12:20.259Z,-6.41
2023-02-16T05:17:25.763Z,-6.17
2023-02-16T05:22:29.277Z,-5.58
2023-02-16T05:27:34.819Z,-5.90
2023-02-16T05:32:50.869Z,-5.69
2023-02-16T05:37:55.393Z,-5.56
2023-02-16T05:42:59.034Z,-5.02
2023-02-16T05:48:05.363Z,-4.94
2023-02-16T05:53:11.112Z,-3.93
2023-02-16T05:58:15.888Z,-3.63
2023-02-16T06:03:20.876Z,-4.54
2023-02-16T06:08:24.558Z,-3.60
2023-02-16T06:13:27.293Z,-3.83
2023-02-16T06:18:32.729Z,-3.06
2023-02-16T06:23:35.199Z,-2.46
2023-02-16T06:28:37.761Z,-2.00
2023-02-16T06:33:41.314Z,-1.58
2023-02-16T06:38:44.631Z,-1.20
2023-02-16T06:43:47.012Z,-0.97
2023-02-16T06:48:50.795Z,-0.22
2023-02-16T06:54:01.516Z,0.03
2023-02-16T06:59:04.622Z,-0.18
2023-02-16T07:04:07.472Z,0.13
2023-02-16T07:09:12.405Z,0.80
2023-02-16T07:14:16.340Z,1.05
2023-02-16T07:19:27.078Z,1.04
2023-02-16T07:24:37.797Z,0.54
2023-02-16T07:29:56.081Z,-0.04
2023-02-16T07:35:00.676Z,0.04
2023-02-16T07:40:07.318Z,-0.13
2023-02-16T07:45:12.389Z,-0.57
2023-02-16T07:50:14.894Z,-0.20
2023-02-16T07:55:17.975Z,-0.50
2023-02-16T08:00:23.261Z,-0.78
2023-02-16T08:05:26.372Z,0.06
2023-02-16T08:10:30.917Z,-0.57
2023-02-16T08:15:34.021Z,-0.45
2023-02-16T08:20:57.597Z,-0.67
2023-02-16T08:26:11.634Z,-1.18
2023-02-16T08:31:55.760Z,-0.16
2023-02-16T08:37:03.297Z,0.00
2023-02-16T08:42:12.975Z,-0.36
2023-02-16T08:47:20.390Z,-0.23
2023-02-16T08:52:23.376Z,-0.02
2023-02-16T08:57:27.997Z,0.12
2023-02-16T09:02:30.756Z,0.18
2023-02-16T09:07:35.761Z,-0.02
2023-02-16T09:12:43.182Z,-0.28
2023-02-16T09:17:56.895Z,-0.30
2023-02-16T09:23:21.214Z,-0.41
2023-02-16T09:28:32.694Z,0.41
2023-02-16T09:33:35.988Z,0.15
2023-02-16T09:38:41.346Z,0.10
2023-02-16T09:43:55.206Z,0.26
2023-02-16T09:49:05.432Z,0.30
2023-02-16T09:54:48.480Z,-0.65
2023-02-16T10:00:11.982Z,-0.73
2023-02-16T10:05:32.359Z,-0.68
2023-02-16T10:11:35.864Z,0.15
2023-02-16T10:17:01.417Z,-0.29
2023-02-16T10:46:40.650Z,0.09
2023-02-16T10:51:50.186Z,-0.24
2023-02-16T10:56:59.922Z,0.02
2023-02-16T11:02:24.139Z,-0.58
2023-02-16T11:07:30.919Z,-1.22
2023-02-16T11:12:39.251Z,-0.26
2023-02-16T11:17:53.494Z,-0.05
2023-02-16T11:23:16.935Z,-0.62
2023-02-16T11:28:38.338Z,-0.39
2023-02-16T11:33:43.593Z,-0.40
2023-02-16T11:39:03.895Z,-0.13
2023-02-16T11:44:27.235Z,-0.12
2023-02-16T11:49:37.689Z,-0.38
2023-02-16T11:54:49.516Z,-1.04
2023-02-16T11:59:54.485Z,-0.18
2023-02-16T12:05:22.115Z,-0.94
2023-02-16T12:10:58.585Z,-0.20
2023-02-16T12:16:19.359Z,-0.90
2023-02-16T12:21:31.622Z,-0.26
2023-02-16T12:26:57.097Z,-0.63
2023-02-16T12:32:12.368Z,-0.43
2023-02-16T12:37:27.264Z,-0.60
2023-02-16T12:42:58.820Z,-0.65
2023-02-16T12:48:37.876Z,-0.82
2023-02-16T12:54:17.157Z,-1.54
2023-02-16T12:59:54.611Z,-1.02
2023-02-16T13:05:14.018Z,-1.15
2023-02-16T13:10:54.329Z,-1.15
2023-02-16T13:16:28.733Z,-1.54
2023-02-16T13:27:42.077Z,-1.44
2023-02-16T13:32:57.225Z,-1.23
2023-02-16T13:38:21.342Z,-1.26
2023-02-16T13:43:41.404Z,-1.75
2023-02-16T13:48:51.096Z,-1.50
2023-02-16T13:54:01.820Z,-1.60
2023-02-16T13:59:19.757Z,-1.50
2023-02-16T14:04:28.823Z,-1.47
2023-02-16T14:09:44.298Z,-1.59
2023-02-16T14:15:22.194Z,-1.87
2023-02-16T14:20:30.362Z,-2.58
2023-02-16T14:25:39.319Z,-2.63
2023-02-16T14:30:59.049Z,-1.70
2023-02-16T14:36:01.406Z,-1.77
2023-02-16T14:41:08.385Z,-1.81
2023-02-16T14:46:22.113Z,-2.07
2023-02-16T14:51:51.246Z,-1.96
2023-02-16T14:57:11.300Z,-2.08
2023-02-16T15:02:54.867Z,-2.09
2023-02-16T15:08:09.922Z,-2.00
2023-02-16T15:13:28.988Z,-2.29
2023-02-16T15:18:50.655Z,-2.14
2023-02-16T15:23:59.283Z,-2.11
2023-02-16T15:29:21.497Z,-2.20
2023-02-16T15:34:31.216Z,-2.29
2023-02-16T15:39:48.343Z,-2.58
2023-02-16T15:44:58.588Z,-2.92
2023-02-16T15:50:12.845Z,-2.81
2023-02-16T15:55:17.199Z,-2.70
2023-02-16T16:00:22.242Z,-2.56
2023-02-16T16:05:27.821Z,-2.56
2023-02-16T16:10:37.110Z,-2.52
2023-02-16T16:15:43.524Z,-2.57
2023-02-16T16:20:46.461Z,-2.79
2023-02-16T16:25:49.997Z,-3.14
2023-02-16T16:31:29.998Z,-2.82
2023-02-16T16:36:34.173Z,-2.94
2023-02-16T16:41:36.657Z,-2.89
2023-02-16T16:46:39.972Z,-3.10
2023-02-16T16:51:44.857Z,-2.98
2023-02-16T16:56:47.295Z,-3.38
2023-02-16T17:01:50.740Z,-3.21
2023-02-16T17:06:55.915Z,-3.36
2023-02-16T17:11:58.669Z,-3.26
2023-02-16T17:17:01.292Z,-3.36
2023-02-16T17:22:14.918Z,-3.40
2023-02-16T17:27:17.590Z,-3.57
2023-02-16T17:32:20.628Z,-3.53
2023-02-16T17:37:23.234Z,-3.71
2023-02-16T17:42:28.140Z,-3.66
2023-02-16T17:47:30.600Z,-3.84
2023-02-16T17:52:33.366Z,-3.93
2023-02-16T17:57:36.355Z,-3.74
2023-02-16T18:02:39.938Z,-3.76
2023-02-16T18:07:42.478Z,-4.08
2023-02-16T18:12:47.913Z,-4.22
2023-02-16T18:17:50.360Z,-4.27
2023-02-16T18:22:54.043Z,-3.93
2023-02-16T18:27:56.727Z,-3.94
2023-02-16T18:33:00.250Z,-4.03
2023-02-16T18:38:02.852Z,-3.87
2023-02-16T18:43:05.556Z,-3.92
2023-02-16T18:48:08.406Z,-4.70
2023-02-16T18:53:10.940Z,-4.14
2023-02-16T18:58:15.139Z,-4.02
2023-02-16T19:03:17.649Z,-4.23
2023-02-16T19:08:22.366Z,-4.00
2023-02-16T19:13:24.892Z,-4.15
2023-02-16T19:18:29.448Z,-4.65
2023-02-16T19:23:31.923Z,-4.54
2023-02-16T19:28:35.546Z,-4.27
2023-02-16T19:33:38.174Z,-4.27
2023-02-16T19:38:41.460Z,-4.26
2023-02-16T19:43:44.996Z,-4.33
2023-02-16T19:48:47.895Z,-4.30
2023-02-16T19:53:51.981Z,-4.45
2023-02-16T19:58:58.668Z,-4.28
2023-02-16T20:04:02.293Z,-4.56
2023-02-16T20:09:06.254Z,-4.71
2023-02-16T20:14:09.008Z,-4.54
2023-02-16T20:19:11.740Z,-4.47
2023-02-16T20:24:15.611Z,-4.69
2023-02-16T20:29:18.108Z,-4.63
2023-02-16T20:34:21.481Z,-4.56
2023-02-16T20:39:25.208Z,-4.69
2023-02-16T20:44:27.656Z,-4.95
2023-02-16T20:49:31.461Z,-4.99
2023-02-16T20:54:35.748Z,-4.84
2023-02-16T20:59:39.156Z,-4.94
2023-02-16T21:04:42.037Z,-4.78
2023-02-16T21:09:45.013Z,-4.80
2023-02-16T21:14:47.457Z,-5.07
2023-02-16T21:19:50.972Z,-5.15
2023-02-16T21:24:53.328Z,-5.08
2023-02-16T21:29:56.426Z,-5.27
2023-02-16T21:34:59.354Z,-5.25
2023-02-16T21:40:20.877Z,-5.41
2023-02-16T21:45:23.995Z,-5.45
2023-02-16T21:50:28.832Z,-5.74
2023-02-16T21:55:51.107Z,-5.26
2023-02-16T22:00:54.042Z,-5.35
2023-02-16T22:05:57.275Z,-5.30
2023-02-16T22:11:08.748Z,-5.43
2023-02-16T22:16:17.175Z,-5.36
2023-02-16T22:21:19.680Z,-5.51
2023-02-16T22:26:32.534Z,-5.79
2023-02-16T22:31:36.191Z,-5.62
2023-02-16T22:36:38.707Z,-5.53
2023-02-16T22:41:42.241Z,-5.74
2023-02-16T22:46:45.213Z,-5.89
2023-02-16T22:51:47.593Z,-5.67
2023-02-16T22:56:50.750Z,-5.75
2023-02-16T23:01:54.040Z,-5.70
2023-02-16T23:06:56.489Z,-5.98
2023-02-16T23:11:58.876Z,-5.89
2023-02-16T23:17:01.861Z,-5.98
2023-02-16T23:22:04.882Z,-5.89
2023-02-16T23:27:08.214Z,-6.15
2023-02-16T23:32:13.156Z,-5.96
2023-02-16T23:37:16.042Z,-6.03
2023-02-16T23:42:18.550Z,-5.87
2023-02-16T23:47:21.786Z,-6.22
2023-02-16T23:52:24.138Z,-6.05
2023-02-16T23:57:27.056Z,-5.86
